sensor_id;sensor_type;location;lat;lon;timestamp;P1;durP1;ratioP1;P2;durP2;ratioP2
64142;SDS011;50437;51.970;5.904;2023-03-01T00:01:15;3.55;;;1.75;;
64142;SDS011;50437;51.970;5.904;2023-03-01T00:03:46;3.05;;;1.48;;
64142;SDS011;50437;51.970;5.904;2023-03-01T00:06:13;2.43;;;2.10;;
64142;SDS011;50437;51.970;5.904;2023-03-01T00:08:39;2.75;;;1.70;;
64142;SDS011;50437;51.970;5.904;2023-03-01T00:11:07;3.22;;;1.60;;
64142;SDS011;50437;51.970;5.904;2023-03-01T00:13:41;3.78;;;2.25;;
64142;SDS011;50437;51.970;5.904;2023-03-01T00:16:09;3.20;;;2.17;;
64142;SDS011;50437;51.970;5.904;2023-03-01T00:18:38;3.63;;;2.45;;
64142;SDS011;50437;51.970;5.904;2023-03-01T00:21:05;2.45;;;1.58;;
64142;SDS011;50437;51.970;5.904;2023-03-01T00:23:35;1.77;;;1.67;;
64142;SDS011;50437;51.970;5.904;2023-03-01T00:26:08;2.88;;;1.88;;
64142;SDS011;50437;51.970;5.904;2023-03-01T00:28:37;2.90;;;1.65;;
64142;SDS011;50437;51.970;5.904;2023-03-01T00:31:07;1.70;;;1.25;;
64142;SDS011;50437;51.970;5.904;2023-03-01T00:33:37;3.13;;;1.98;;
64142;SDS011;50437;51.970;5.904;2023-03-01T00:36:04;2.92;;;2.05;;
64142;SDS011;50437;51.970;5.904;2023-03-01T00:38:35;4.05;;;1.77;;
64142;SDS011;50437;51.970;5.904;2023-03-01T00:41:07;4.53;;;1.75;;
64142;SDS011;50437;51.970;5.904;2023-03-01T00:43:39;3.33;;;2.38;;
64142;SDS011;50437;51.970;5.904;2023-03-01T00:46:07;3.42;;;1.75;;
64142;SDS011;50437;51.970;5.904;2023-03-01T00:48:38;2.80;;;1.63;;
64142;SDS011;50437;51.970;5.904;2023-03-01T00:51:05;4.67;;;1.87;;
64142;SDS011;50437;51.970;5.904;2023-03-01T00:53:32;2.72;;;1.42;;
64142;SDS011;50437;51.970;5.904;2023-03-01T00:55:58;2.20;;;1.75;;
64142;SDS011;50437;51.970;5.904;2023-03-01T00:58:25;4.97;;;3.72;;
64142;SDS011;50437;51.970;5.904;2023-03-01T01:00:52;3.28;;;1.98;;
64142;SDS011;50437;51.970;5.904;2023-03-01T01:03:18;2.53;;;1.92;;
64142;SDS011;50437;51.970;5.904;2023-03-01T01:05:44;3.30;;;2.08;;
64142;SDS011;50437;51.970;5.904;2023-03-01T01:08:11;3.05;;;1.85;;
64142;SDS011;50437;51.970;5.904;2023-03-01T01:10:38;6.35;;;1.85;;
64142;SDS011;50437;51.970;5.904;2023-03-01T01:13:04;3.97;;;1.90;;
64142;SDS011;50437;51.970;5.904;2023-03-01T01:15:34;4.75;;;2.08;;
64142;SDS011;50437;51.970;5.904;2023-03-01T01:18:01;4.25;;;2.33;;
64142;SDS011;50437;51.970;5.904;2023-03-01T01:20:27;3.38;;;1.88;;
64142;SDS011;50437;51.970;5.904;2023-03-01T01:22:54;2.30;;;2.10;;
64142;SDS011;50437;51.970;5.904;2023-03-01T01:25:20;5.03;;;2.05;;
64142;SDS011;50437;51.970;5.904;2023-03-01T01:27:46;4.68;;;1.70;;
64142;SDS011;50437;51.970;5.904;2023-03-01T01:30:12;8.23;;;3.28;;
64142;SDS011;50437;51.970;5.904;2023-03-01T01:32:39;2.67;;;2.20;;
64142;SDS011;50437;51.970;5.904;2023-03-01T01:35:05;5.73;;;2.90;;
64142;SDS011;50437;51.970;5.904;2023-03-01T01:37:32;7.93;;;2.58;;
64142;SDS011;50437;51.970;5.904;2023-03-01T01:40:00;7.32;;;2.42;;
64142;SDS011;50437;51.970;5.904;2023-03-01T01:42:29;4.53;;;2.47;;
64142;SDS011;50437;51.970;5.904;2023-03-01T01:47:51;3.97;;;2.15;;
64142;SDS011;50437;51.970;5.904;2023-03-01T01:50:19;4.22;;;3.17;;
64142;SDS011;50437;51.970;5.904;2023-03-01T01:52:46;3.15;;;2.47;;
64142;SDS011;50437;51.970;5.904;2023-03-01T01:55:17;5.07;;;2.60;;
64142;SDS011;50437;51.970;5.904;2023-03-01T01:57:48;4.47;;;2.58;;
64142;SDS011;50437;51.970;5.904;2023-03-01T02:00:21;6.80;;;3.03;;
64142;SDS011;50437;51.970;5.904;2023-03-01T02:02:51;4.32;;;2.60;;
64142;SDS011;50437;51.970;5.904;2023-03-01T02:07:54;3.40;;;3.10;;
64142;SDS011;50437;51.970;5.904;2023-03-01T02:10:22;3.80;;;2.83;;
64142;SDS011;50437;51.970;5.904;2023-03-01T02:12:51;6.55;;;3.17;;
64142;SDS011;50437;51.970;5.904;2023-03-01T02:15:18;5.75;;;2.78;;
64142;SDS011;50437;51.970;5.904;2023-03-01T02:17:44;6.03;;;3.67;;
64142;SDS011;50437;51.970;5.904;2023-03-01T02:23:03;6.20;;;4.88;;
64142;SDS011;50437;51.970;5.904;2023-03-01T02:30:32;5.50;;;3.15;;
64142;SDS011;50437;51.970;5.904;2023-03-01T02:32:59;7.20;;;3.47;;
64142;SDS011;50437;51.970;5.904;2023-03-01T02:35:29;6.18;;;3.28;;
64142;SDS011;50437;51.970;5.904;2023-03-01T02:38:01;5.80;;;3.85;;
64142;SDS011;50437;51.970;5.904;2023-03-01T02:40:31;5.60;;;3.88;;
64142;SDS011;50437;51.970;5.904;2023-03-01T02:43:00;5.00;;;3.83;;
64142;SDS011;50437;51.970;5.904;2023-03-01T02:45:26;3.83;;;3.15;;
64142;SDS011;50437;51.970;5.904;2023-03-01T02:47:53;7.28;;;3.47;;
64142;SDS011;50437;51.970;5.904;2023-03-01T02:56:00;4.97;;;3.42;;
64142;SDS011;50437;51.970;5.904;2023-03-01T02:58:28;5.60;;;2.97;;
64142;SDS011;50437;51.970;5.904;2023-03-01T03:00:54;3.67;;;2.75;;
64142;SDS011;50437;51.970;5.904;2023-03-01T03:03:22;4.50;;;4.00;;
64142;SDS011;50437;51.970;5.904;2023-03-01T03:05:48;5.13;;;3.63;;
64142;SDS011;50437;51.970;5.904;2023-03-01T03:08:15;3.88;;;2.85;;
64142;SDS011;50437;51.970;5.904;2023-03-01T03:10:50;6.93;;;3.60;;
64142;SDS011;50437;51.970;5.904;2023-03-01T03:13:17;3.50;;;3.08;;
64142;SDS011;50437;51.970;5.904;2023-03-01T03:15:44;4.70;;;2.65;;
64142;SDS011;50437;51.970;5.904;2023-03-01T03:18:11;4.70;;;3.55;;
64142;SDS011;50437;51.970;5.904;2023-03-01T03:20:40;4.20;;;3.58;;
64142;SDS011;50437;51.970;5.904;2023-03-01T03:23:07;4.20;;;2.92;;
64142;SDS011;50437;51.970;5.904;2023-03-01T03:25:34;4.80;;;3.20;;
64142;SDS011;50437;51.970;5.904;2023-03-01T03:28:03;8.40;;;4.40;;
64142;SDS011;50437;51.970;5.904;2023-03-01T03:30:36;3.80;;;3.20;;
64142;SDS011;50437;51.970;5.904;2023-03-01T03:33:08;6.70;;;3.80;;
64142;SDS011;50437;51.970;5.904;2023-03-01T03:35:44;7.38;;;3.45;;
64142;SDS011;50437;51.970;5.904;2023-03-01T03:40:42;5.00;;;2.70;;
64142;SDS011;50437;51.970;5.904;2023-03-01T03:43:14;5.85;;;3.75;;
64142;SDS011;50437;51.970;5.904;2023-03-01T03:45:45;5.45;;;4.03;;
64142;SDS011;50437;51.970;5.904;2023-03-01T03:48:13;4.80;;;3.33;;
64142;SDS011;50437;51.970;5.904;2023-03-01T03:50:40;7.22;;;3.35;;
64142;SDS011;50437;51.970;5.904;2023-03-01T03:53:08;5.35;;;3.70;;
64142;SDS011;50437;51.970;5.904;2023-03-01T03:55:36;5.97;;;3.83;;
64142;SDS011;50437;51.970;5.904;2023-03-01T03:58:05;6.47;;;3.80;;
64142;SDS011;50437;51.970;5.904;2023-03-01T04:00:34;4.93;;;3.60;;
64142;SDS011;50437;51.970;5.904;2023-03-01T04:03:05;8.20;;;3.47;;
64142;SDS011;50437;51.970;5.904;2023-03-01T04:05:32;3.85;;;3.35;;
64142;SDS011;50437;51.970;5.904;2023-03-01T04:07:59;5.90;;;3.97;;
64142;SDS011;50437;51.970;5.904;2023-03-01T04:10:29;6.45;;;3.25;;
64142;SDS011;50437;51.970;5.904;2023-03-01T04:12:57;6.03;;;3.75;;
64142;SDS011;50437;51.970;5.904;2023-03-01T04:15:24;6.87;;;3.87;;
64142;SDS011;50437;51.970;5.904;2023-03-01T04:17:54;11.95;;;4.18;;
64142;SDS011;50437;51.970;5.904;2023-03-01T04:20:24;11.30;;;4.28;;
64142;SDS011;50437;51.970;5.904;2023-03-01T04:22:59;7.35;;;4.03;;
64142;SDS011;50437;51.970;5.904;2023-03-01T04:28:24;7.35;;;3.17;;
64142;SDS011;50437;51.970;5.904;2023-03-01T04:30:52;5.35;;;3.53;;
64142;SDS011;50437;51.970;5.904;2023-03-01T04:33:20;3.97;;;3.13;;
64142;SDS011;50437;51.970;5.904;2023-03-01T04:35:47;10.60;;;4.38;;
64142;SDS011;50437;51.970;5.904;2023-03-01T04:38:16;7.53;;;3.75;;
64142;SDS011;50437;51.970;5.904;2023-03-01T04:40:43;4.88;;;3.63;;
64142;SDS011;50437;51.970;5.904;2023-03-01T04:43:10;6.50;;;4.03;;
64142;SDS011;50437;51.970;5.904;2023-03-01T04:45:37;5.18;;;4.03;;
64142;SDS011;50437;51.970;5.904;2023-03-01T04:48:03;4.38;;;3.13;;
64142;SDS011;50437;51.970;5.904;2023-03-01T04:50:29;7.95;;;3.47;;
64142;SDS011;50437;51.970;5.904;2023-03-01T04:52:56;6.68;;;4.50;;
64142;SDS011;50437;51.970;5.904;2023-03-01T04:55:25;8.57;;;3.58;;
64142;SDS011;50437;51.970;5.904;2023-03-01T04:57:53;8.20;;;4.18;;
64142;SDS011;50437;51.970;5.904;2023-03-01T05:00:20;4.93;;;3.83;;
64142;SDS011;50437;51.970;5.904;2023-03-01T05:02:51;6.57;;;4.00;;
64142;SDS011;50437;51.970;5.904;2023-03-01T05:05:20;8.57;;;4.45;;
64142;SDS011;50437;51.970;5.904;2023-03-01T05:07:52;3.70;;;3.30;;
64142;SDS011;50437;51.970;5.904;2023-03-01T05:10:19;5.90;;;4.20;;
64142;SDS011;50437;51.970;5.904;2023-03-01T05:12:48;7.43;;;4.63;;
64142;SDS011;50437;51.970;5.904;2023-03-01T05:15:14;10.53;;;4.03;;
64142;SDS011;50437;51.970;5.904;2023-03-01T05:17:40;4.95;;;3.53;;
64142;SDS011;50437;51.970;5.904;2023-03-01T05:20:07;8.32;;;3.35;;
64142;SDS011;50437;51.970;5.904;2023-03-01T05:22:34;7.07;;;3.70;;
64142;SDS011;50437;51.970;5.904;2023-03-01T05:25:01;5.57;;;2.92;;
64142;SDS011;50437;51.970;5.904;2023-03-01T05:27:28;4.63;;;3.63;;
64142;SDS011;50437;51.970;5.904;2023-03-01T05:29:55;7.43;;;4.05;;
64142;SDS011;50437;51.970;5.904;2023-03-01T05:32:22;4.60;;;3.53;;
64142;SDS011;50437;51.970;5.904;2023-03-01T05:34:48;3.90;;;3.57;;
64142;SDS011;50437;51.970;5.904;2023-03-01T05:37:14;6.97;;;4.40;;
64142;SDS011;50437;51.970;5.904;2023-03-01T05:39:40;5.35;;;3.05;;
64142;SDS011;50437;51.970;5.904;2023-03-01T05:42:09;5.03;;;3.58;;
64142;SDS011;50437;51.970;5.904;2023-03-01T05:44:39;4.80;;;3.25;;
64142;SDS011;50437;51.970;5.904;2023-03-01T05:47:07;4.60;;;3.03;;
64142;SDS011;50437;51.970;5.904;2023-03-01T05:49:34;5.10;;;3.83;;
64142;SDS011;50437;51.970;5.904;2023-03-01T05:52:00;7.18;;;2.75;;
64142;SDS011;50437;51.970;5.904;2023-03-01T05:54:27;4.68;;;3.80;;
64142;SDS011;50437;51.970;5.904;2023-03-01T05:56:53;4.80;;;3.43;;
64142;SDS011;50437;51.970;5.904;2023-03-01T05:59:19;6.05;;;3.63;;
64142;SDS011;50437;51.970;5.904;2023-03-01T06:01:45;10.60;;;3.33;;
64142;SDS011;50437;51.970;5.904;2023-03-01T06:04:11;6.07;;;4.22;;
64142;SDS011;50437;51.970;5.904;2023-03-01T06:06:37;9.30;;;4.03;;
64142;SDS011;50437;51.970;5.904;2023-03-01T06:09:04;6.28;;;3.72;;
64142;SDS011;50437;51.970;5.904;2023-03-01T06:11:35;10.23;;;5.22;;
64142;SDS011;50437;51.970;5.904;2023-03-01T06:14:02;7.32;;;4.72;;
64142;SDS011;50437;51.970;5.904;2023-03-01T06:16:29;6.68;;;4.55;;
64142;SDS011;50437;51.970;5.904;2023-03-01T06:18:55;9.80;;;5.47;;
64142;SDS011;50437;51.970;5.904;2023-03-01T06:21:21;10.98;;;4.70;;
64142;SDS011;50437;51.970;5.904;2023-03-01T06:23:47;7.75;;;4.93;;
64142;SDS011;50437;51.970;5.904;2023-03-01T06:26:13;14.30;;;5.63;;
64142;SDS011;50437;51.970;5.904;2023-03-01T06:28:41;11.02;;;5.32;;
64142;SDS011;50437;51.970;5.904;2023-03-01T06:33:34;7.27;;;5.20;;
64142;SDS011;50437;51.970;5.904;2023-03-01T06:36:04;5.47;;;4.47;;
64142;SDS011;50437;51.970;5.904;2023-03-01T06:38:53;7.60;;;4.13;;
64142;SDS011;50437;51.970;5.904;2023-03-01T06:41:19;10.75;;;4.55;;
64142;SDS011;50437;51.970;5.904;2023-03-01T06:43:45;7.72;;;4.72;;
64142;SDS011;50437;51.970;5.904;2023-03-01T06:46:11;10.27;;;4.60;;
64142;SDS011;50437;51.970;5.904;2023-03-01T06:48:37;4.75;;;4.18;;
64142;SDS011;50437;51.970;5.904;2023-03-01T06:51:03;10.13;;;4.13;;
64142;SDS011;50437;51.970;5.904;2023-03-01T06:53:30;7.85;;;4.45;;
64142;SDS011;50437;51.970;5.904;2023-03-01T06:55:56;7.50;;;4.63;;
64142;SDS011;50437;51.970;5.904;2023-03-01T06:58:23;7.32;;;3.67;;
64142;SDS011;50437;51.970;5.904;2023-03-01T07:00:49;8.38;;;4.32;;
64142;SDS011;50437;51.970;5.904;2023-03-01T07:03:15;8.53;;;3.93;;
64142;SDS011;50437;51.970;5.904;2023-03-01T07:05:41;7.43;;;4.40;;
64142;SDS011;50437;51.970;5.904;2023-03-01T07:08:08;5.93;;;4.00;;
64142;SDS011;50437;51.970;5.904;2023-03-01T07:10:34;12.57;;;4.70;;
64142;SDS011;50437;51.970;5.904;2023-03-01T07:13:00;8.07;;;3.95;;
64142;SDS011;50437;51.970;5.904;2023-03-01T07:15:29;6.38;;;3.33;;
64142;SDS011;50437;51.970;5.904;2023-03-01T07:17:55;8.20;;;4.78;;
64142;SDS011;50437;51.970;5.904;2023-03-01T07:20:22;11.00;;;4.10;;
64142;SDS011;50437;51.970;5.904;2023-03-01T07:22:51;9.35;;;4.47;;
64142;SDS011;50437;51.970;5.904;2023-03-01T07:25:18;7.88;;;4.25;;
64142;SDS011;50437;51.970;5.904;2023-03-01T07:27:48;7.60;;;4.77;;
64142;SDS011;50437;51.970;5.904;2023-03-01T07:30:18;6.53;;;3.88;;
64142;SDS011;50437;51.970;5.904;2023-03-01T07:32:45;8.63;;;4.05;;
64142;SDS011;50437;51.970;5.904;2023-03-01T07:35:11;8.65;;;4.22;;
64142;SDS011;50437;51.970;5.904;2023-03-01T07:37:37;11.77;;;5.32;;
64142;SDS011;50437;51.970;5.904;2023-03-01T07:40:04;6.93;;;4.65;;
64142;SDS011;50437;51.970;5.904;2023-03-01T07:42:30;6.85;;;4.68;;
64142;SDS011;50437;51.970;5.904;2023-03-01T07:44:56;7.38;;;4.47;;
64142;SDS011;50437;51.970;5.904;2023-03-01T07:47:23;8.30;;;3.97;;
64142;SDS011;50437;51.970;5.904;2023-03-01T07:49:49;13.18;;;5.30;;
64142;SDS011;50437;51.970;5.904;2023-03-01T07:52:15;8.67;;;4.53;;
64142;SDS011;50437;51.970;5.904;2023-03-01T07:54:44;6.38;;;4.10;;
64142;SDS011;50437;51.970;5.904;2023-03-01T07:57:10;14.80;;;5.18;;
64142;SDS011;50437;51.970;5.904;2023-03-01T07:59:37;12.10;;;4.90;;
64142;SDS011;50437;51.970;5.904;2023-03-01T08:02:03;11.57;;;3.97;;
64142;SDS011;50437;51.970;5.904;2023-03-01T08:04:29;4.97;;;3.17;;
64142;SDS011;50437;51.970;5.904;2023-03-01T08:06:56;5.88;;;3.40;;
64142;SDS011;50437;51.970;5.904;2023-03-01T08:09:22;8.50;;;3.95;;
64142;SDS011;50437;51.970;5.904;2023-03-01T08:11:49;8.13;;;4.68;;
64142;SDS011;50437;51.970;5.904;2023-03-01T08:14:15;8.15;;;4.55;;
64142;SDS011;50437;51.970;5.904;2023-03-01T08:16:42;10.32;;;3.95;;
64142;SDS011;50437;51.970;5.904;2023-03-01T08:19:12;9.38;;;3.85;;
64142;SDS011;50437;51.970;5.904;2023-03-01T08:21:38;6.32;;;3.80;;
64142;SDS011;50437;51.970;5.904;2023-03-01T08:24:05;9.30;;;3.90;;
64142;SDS011;50437;51.970;5.904;2023-03-01T08:26:32;12.43;;;3.83;;
64142;SDS011;50437;51.970;5.904;2023-03-01T08:31:30;7.60;;;3.90;;
64142;SDS011;50437;51.970;5.904;2023-03-01T08:34:19;11.82;;;3.90;;
64142;SDS011;50437;51.970;5.904;2023-03-01T08:36:45;4.50;;;2.38;;
64142;SDS011;50437;51.970;5.904;2023-03-01T08:39:13;5.80;;;3.78;;
64142;SDS011;50437;51.970;5.904;2023-03-01T08:41:40;7.63;;;3.75;;
64142;SDS011;50437;51.970;5.904;2023-03-01T08:44:07;4.20;;;3.22;;
64142;SDS011;50437;51.970;5.904;2023-03-01T08:46:35;4.55;;;2.85;;
64142;SDS011;50437;51.970;5.904;2023-03-01T08:49:24;5.38;;;2.97;;
64142;SDS011;50437;51.970;5.904;2023-03-01T08:51:52;4.25;;;3.03;;
64142;SDS011;50437;51.970;5.904;2023-03-01T08:54:19;8.23;;;3.42;;
64142;SDS011;50437;51.970;5.904;2023-03-01T08:56:47;8.25;;;3.97;;
64142;SDS011;50437;51.970;5.904;2023-03-01T08:59:14;5.10;;;3.45;;
64142;SDS011;50437;51.970;5.904;2023-03-01T09:01:41;12.15;;;4.10;;
64142;SDS011;50437;51.970;5.904;2023-03-01T09:04:11;7.57;;;3.60;;
64142;SDS011;50437;51.970;5.904;2023-03-01T09:06:39;5.03;;;2.63;;
64142;SDS011;50437;51.970;5.904;2023-03-01T09:09:06;4.78;;;2.78;;
64142;SDS011;50437;51.970;5.904;2023-03-01T09:11:43;7.63;;;2.83;;
64142;SDS011;50437;51.970;5.904;2023-03-01T09:14:15;6.45;;;2.60;;
64142;SDS011;50437;51.970;5.904;2023-03-01T09:16:42;4.50;;;2.60;;
64142;SDS011;50437;51.970;5.904;2023-03-01T09:19:11;2.85;;;2.22;;
64142;SDS011;50437;51.970;5.904;2023-03-01T09:21:40;13.57;;;3.72;;
64142;SDS011;50437;51.970;5.904;2023-03-01T09:24:18;4.53;;;2.80;;
64142;SDS011;50437;51.970;5.904;2023-03-01T09:26:46;3.13;;;1.35;;
64142;SDS011;50437;51.970;5.904;2023-03-01T09:29:13;3.35;;;1.88;;
64142;SDS011;50437;51.970;5.904;2023-03-01T09:31:40;2.25;;;1.80;;
64142;SDS011;50437;51.970;5.904;2023-03-01T09:34:07;2.70;;;2.10;;
64142;SDS011;50437;51.970;5.904;2023-03-01T09:36:34;3.90;;;1.88;;
64142;SDS011;50437;51.970;5.904;2023-03-01T09:39:01;6.57;;;3.22;;
64142;SDS011;50437;51.970;5.904;2023-03-01T09:47:25;4.55;;;3.38;;
64142;SDS011;50437;51.970;5.904;2023-03-01T09:49:58;4.30;;;3.38;;
64142;SDS011;50437;51.970;5.904;2023-03-01T09:52:39;3.08;;;2.78;;
64142;SDS011;50437;51.970;5.904;2023-03-01T09:55:10;5.80;;;3.00;;
64142;SDS011;50437;51.970;5.904;2023-03-01T10:00:30;6.35;;;2.78;;
64142;SDS011;50437;51.970;5.904;2023-03-01T10:03:12;3.28;;;1.80;;
64142;SDS011;50437;51.970;5.904;2023-03-01T10:06:04;3.35;;;3.05;;
64142;SDS011;50437;51.970;5.904;2023-03-01T10:08:43;3.50;;;3.28;;
64142;SDS011;50437;51.970;5.904;2023-03-01T10:11:36;7.38;;;3.95;;
64142;SDS011;50437;51.970;5.904;2023-03-01T10:17:02;4.75;;;4.07;;
64142;SDS011;50437;51.970;5.904;2023-03-01T10:22:51;6.97;;;3.65;;
64142;SDS011;50437;51.970;5.904;2023-03-01T10:24:56;5.75;;;3.05;;
64142;SDS011;50437;51.970;5.904;2023-03-01T10:27:26;4.65;;;2.60;;
64142;SDS011;50437;51.970;5.904;2023-03-01T10:32:51;3.53;;;2.65;;
64142;SDS011;50437;51.970;5.904;2023-03-01T10:35:29;3.72;;;3.35;;
64142;SDS011;50437;51.970;5.904;2023-03-01T10:38:02;4.00;;;2.38;;
64142;SDS011;50437;51.970;5.904;2023-03-01T10:40:34;5.75;;;2.85;;
64142;SDS011;50437;51.970;5.904;2023-03-01T10:43:02;6.43;;;3.08;;
64142;SDS011;50437;51.970;5.904;2023-03-01T10:45:32;2.95;;;2.47;;
64142;SDS011;50437;51.970;5.904;2023-03-01T10:53:33;3.20;;;2.65;;
64142;SDS011;50437;51.970;5.904;2023-03-01T10:56:12;3.85;;;2.42;;
64142;SDS011;50437;51.970;5.904;2023-03-01T10:58:41;4.72;;;2.33;;
64142;SDS011;50437;51.970;5.904;2023-03-01T11:04:03;2.50;;;2.03;;
64142;SDS011;50437;51.970;5.904;2023-03-01T11:06:33;4.28;;;2.22;;
64142;SDS011;50437;51.970;5.904;2023-03-01T11:09:17;3.90;;;2.15;;
64142;SDS011;50437;51.970;5.904;2023-03-01T11:11:51;5.15;;;2.75;;
64142;SDS011;50437;51.970;5.904;2023-03-01T11:14:23;2.50;;;1.80;;
64142;SDS011;50437;51.970;5.904;2023-03-01T11:16:58;4.07;;;2.00;;
64142;SDS011;50437;51.970;5.904;2023-03-01T11:19:30;3.67;;;2.30;;
64142;SDS011;50437;51.970;5.904;2023-03-01T11:22:05;4.32;;;2.08;;
64142;SDS011;50437;51.970;5.904;2023-03-01T11:24:54;2.47;;;1.45;;
64142;SDS011;50437;51.970;5.904;2023-03-01T11:27:26;4.15;;;2.35;;
64142;SDS011;50437;51.970;5.904;2023-03-01T11:30:00;2.53;;;2.00;;
64142;SDS011;50437;51.970;5.904;2023-03-01T11:32:53;4.00;;;2.58;;
64142;SDS011;50437;51.970;5.904;2023-03-01T11:35:35;2.72;;;2.20;;
64142;SDS011;50437;51.970;5.904;2023-03-01T11:40:57;4.35;;;2.20;;
64142;SDS011;50437;51.970;5.904;2023-03-01T11:44:01;4.35;;;1.77;;
64142;SDS011;50437;51.970;5.904;2023-03-01T11:46:49;3.20;;;2.25;;
64142;SDS011;50437;51.970;5.904;2023-03-01T11:53:05;7.63;;;2.58;;
64142;SDS011;50437;51.970;5.904;2023-03-01T12:02:34;4.85;;;2.17;;
64142;SDS011;50437;51.970;5.904;2023-03-01T12:08:33;5.30;;;2.20;;
64142;SDS011;50437;51.970;5.904;2023-03-01T12:33:27;2.53;;;1.73;;
64142;SDS011;50437;51.970;5.904;2023-03-01T12:42:48;2.70;;;1.70;;
64142;SDS011;50437;51.970;5.904;2023-03-01T12:49:15;2.42;;;1.38;;
64142;SDS011;50437;51.970;5.904;2023-03-01T12:51:59;4.55;;;1.77;;
64142;SDS011;50437;51.970;5.904;2023-03-01T12:54:53;4.63;;;1.67;;
64142;SDS011;50437;51.970;5.904;2023-03-01T12:57:28;3.15;;;2.33;;
64142;SDS011;50437;51.970;5.904;2023-03-01T13:03:16;2.65;;;1.95;;
64142;SDS011;50437;51.970;5.904;2023-03-01T13:09:08;3.45;;;1.73;;
64142;SDS011;50437;51.970;5.904;2023-03-01T13:11:59;2.72;;;2.00;;
64142;SDS011;50437;51.970;5.904;2023-03-01T13:14:36;4.90;;;1.95;;
64142;SDS011;50437;51.970;5.904;2023-03-01T13:17:32;2.20;;;1.77;;
64142;SDS011;50437;51.970;5.904;2023-03-01T13:20:23;4.93;;;1.88;;
64142;SDS011;50437;51.970;5.904;2023-03-01T13:28:56;9.98;;;1.85;;
64142;SDS011;50437;51.970;5.904;2023-03-01T13:34:44;2.28;;;1.77;;
64142;SDS011;50437;51.970;5.904;2023-03-01T13:37:37;1.80;;;1.52;;
64142;SDS011;50437;51.970;5.904;2023-03-01T13:42:54;3.90;;;1.88;;
64142;SDS011;50437;51.970;5.904;2023-03-01T13:45:50;4.93;;;1.75;;
64142;SDS011;50437;51.970;5.904;2023-03-01T13:48:44;3.33;;;2.33;;
64142;SDS011;50437;51.970;5.904;2023-03-01T13:51:24;1.75;;;1.30;;
64142;SDS011;50437;51.970;5.904;2023-03-01T13:53:58;3.00;;;1.35;;
64142;SDS011;50437;51.970;5.904;2023-03-01T13:56:33;4.90;;;2.60;;
64142;SDS011;50437;51.970;5.904;2023-03-01T13:59:19;6.43;;;1.77;;
64142;SDS011;50437;51.970;5.904;2023-03-01T14:02:11;5.55;;;1.85;;
64142;SDS011;50437;51.970;5.904;2023-03-01T14:04:55;4.00;;;1.77;;
64142;SDS011;50437;51.970;5.904;2023-03-01T14:07:28;2.15;;;1.40;;
64142;SDS011;50437;51.970;5.904;2023-03-01T14:10:04;4.68;;;1.73;;
64142;SDS011;50437;51.970;5.904;2023-03-01T14:12:52;4.88;;;1.50;;
64142;SDS011;50437;51.970;5.904;2023-03-01T14:15:31;4.82;;;1.52;;
64142;SDS011;50437;51.970;5.904;2023-03-01T14:20:47;2.78;;;1.60;;
64142;SDS011;50437;51.970;5.904;2023-03-01T14:23:20;3.45;;;1.98;;
64142;SDS011;50437;51.970;5.904;2023-03-01T14:25:49;2.00;;;1.77;;
64142;SDS011;50437;51.970;5.904;2023-03-01T14:28:23;3.33;;;1.83;;
64142;SDS011;50437;51.970;5.904;2023-03-01T14:30:54;3.60;;;2.25;;
64142;SDS011;50437;51.970;5.904;2023-03-01T14:33:27;1.92;;;1.40;;
64142;SDS011;50437;51.970;5.904;2023-03-01T14:39:15;4.55;;;2.38;;
64142;SDS011;50437;51.970;5.904;2023-03-01T14:41:53;4.68;;;2.10;;
64142;SDS011;50437;51.970;5.904;2023-03-01T14:44:28;3.63;;;2.00;;
64142;SDS011;50437;51.970;5.904;2023-03-01T14:47:25;4.10;;;2.55;;
64142;SDS011;50437;51.970;5.904;2023-03-01T14:50:18;2.78;;;1.55;;
64142;SDS011;50437;51.970;5.904;2023-03-01T14:52:54;4.63;;;2.10;;
64142;SDS011;50437;51.970;5.904;2023-03-01T14:55:33;3.50;;;2.33;;
64142;SDS011;50437;51.970;5.904;2023-03-01T14:58:14;2.35;;;1.27;;
64142;SDS011;50437;51.970;5.904;2023-03-01T15:01:04;2.67;;;1.80;;
64142;SDS011;50437;51.970;5.904;2023-03-01T15:03:40;4.60;;;2.50;;
64142;SDS011;50437;51.970;5.904;2023-03-01T15:06:26;4.72;;;1.70;;
64142;SDS011;50437;51.970;5.904;2023-03-01T15:08:58;2.50;;;1.15;;
64142;SDS011;50437;51.970;5.904;2023-03-01T15:11:29;2.03;;;1.30;;
64142;SDS011;50437;51.970;5.904;2023-03-01T15:14:05;3.35;;;1.10;;
64142;SDS011;50437;51.970;5.904;2023-03-01T15:17:03;2.47;;;1.88;;
64142;SDS011;50437;51.970;5.904;2023-03-01T15:19:29;2.83;;;1.73;;
64142;SDS011;50437;51.970;5.904;2023-03-01T15:21:56;1.30;;;1.20;;
64142;SDS011;50437;51.970;5.904;2023-03-01T15:24:25;2.22;;;1.42;;
64142;SDS011;50437;51.970;5.904;2023-03-01T15:27:14;2.38;;;1.20;;
64142;SDS011;50437;51.970;5.904;2023-03-01T15:29:47;3.42;;;1.67;;
64142;SDS011;50437;51.970;5.904;2023-03-01T15:32:29;2.33;;;1.35;;
64142;SDS011;50437;51.970;5.904;2023-03-01T15:41:46;4.35;;;1.73;;
64142;SDS011;50437;51.970;5.904;2023-03-01T15:44:16;2.42;;;1.33;;
64142;SDS011;50437;51.970;5.904;2023-03-01T15:50:29;3.05;;;1.00;;
64142;SDS011;50437;51.970;5.904;2023-03-01T15:53:10;3.13;;;0.88;;
64142;SDS011;50437;51.970;5.904;2023-03-01T15:55:40;3.13;;;0.98;;
64142;SDS011;50437;51.970;5.904;2023-03-01T15:58:23;1.23;;;0.90;;
64142;SDS011;50437;51.970;5.904;2023-03-01T16:00:56;3.17;;;1.20;;
64142;SDS011;50437;51.970;5.904;2023-03-01T16:03:45;1.77;;;0.82;;
64142;SDS011;50437;51.970;5.904;2023-03-01T16:06:16;1.85;;;1.25;;
64142;SDS011;50437;51.970;5.904;2023-03-01T16:08:49;3.92;;;1.25;;
64142;SDS011;50437;51.970;5.904;2023-03-01T16:11:20;3.10;;;1.33;;
64142;SDS011;50437;51.970;5.904;2023-03-01T16:14:04;5.60;;;1.23;;
64142;SDS011;50437;51.970;5.904;2023-03-01T16:16:34;1.45;;;1.17;;
64142;SDS011;50437;51.970;5.904;2023-03-01T16:19:01;2.55;;;1.27;;
64142;SDS011;50437;51.970;5.904;2023-03-01T16:21:33;2.47;;;1.13;;
64142;SDS011;50437;51.970;5.904;2023-03-01T16:24:08;5.05;;;2.15;;
64142;SDS011;50437;51.970;5.904;2023-03-01T16:26:53;1.80;;;0.95;;
64142;SDS011;50437;51.970;5.904;2023-03-01T16:29:52;1.63;;;1.10;;
64142;SDS011;50437;51.970;5.904;2023-03-01T16:32:47;2.50;;;1.40;;
64142;SDS011;50437;51.970;5.904;2023-03-01T16:35:39;3.47;;;1.20;;
64142;SDS011;50437;51.970;5.904;2023-03-01T16:38:45;2.40;;;0.90;;
64142;SDS011;50437;51.970;5.904;2023-03-01T16:41:53;3.85;;;1.15;;
64142;SDS011;50437;51.970;5.904;2023-03-01T16:44:55;3.00;;;1.45;;
64142;SDS011;50437;51.970;5.904;2023-03-01T16:47:22;3.75;;;0.90;;
64142;SDS011;50437;51.970;5.904;2023-03-01T16:49:51;1.97;;;0.70;;
64142;SDS011;50437;51.970;5.904;2023-03-01T16:52:18;3.58;;;0.90;;
64142;SDS011;50437;51.970;5.904;2023-03-01T16:57:11;3.58;;;1.20;;
64142;SDS011;50437;51.970;5.904;2023-03-01T16:59:38;3.55;;;0.93;;
64142;SDS011;50437;51.970;5.904;2023-03-01T17:02:04;3.80;;;1.05;;
64142;SDS011;50437;51.970;5.904;2023-03-01T17:04:36;4.45;;;1.20;;
64142;SDS011;50437;51.970;5.904;2023-03-01T17:07:05;6.13;;;1.33;;
64142;SDS011;50437;51.970;5.904;2023-03-01T17:09:35;3.67;;;1.83;;
64142;SDS011;50437;51.970;5.904;2023-03-01T17:12:06;2.65;;;1.15;;
64142;SDS011;50437;51.970;5.904;2023-03-01T17:14:32;7.40;;;1.27;;
64142;SDS011;50437;51.970;5.904;2023-03-01T17:17:08;3.95;;;1.60;;
64142;SDS011;50437;51.970;5.904;2023-03-01T17:19:39;2.10;;;1.10;;
64142;SDS011;50437;51.970;5.904;2023-03-01T17:22:09;7.72;;;1.48;;
64142;SDS011;50437;51.970;5.904;2023-03-01T17:24:42;6.53;;;1.48;;
64142;SDS011;50437;51.970;5.904;2023-03-01T17:27:11;3.13;;;1.38;;
64142;SDS011;50437;51.970;5.904;2023-03-01T17:29:38;4.10;;;1.40;;
64142;SDS011;50437;51.970;5.904;2023-03-01T17:34:34;2.35;;;1.00;;
64142;SDS011;50437;51.970;5.904;2023-03-01T17:37:01;2.90;;;1.23;;
64142;SDS011;50437;51.970;5.904;2023-03-01T17:39:29;3.42;;;1.10;;